createdAt,value
2022-10-16T00:00:51.395Z,13.94
2022-10-16T00:05:54.183Z,13.95
2022-10-16T00:11:01.599Z,13.92
2022-10-16T00:16:06.647Z,13.90
2022-10-16T00:21:11.808Z,13.87
2022-10-16T00:26:16.414Z,14.02
2022-10-16T00:31:23.025Z,13.97
2022-10-16T00:36:27.536Z,14.02
2022-10-16T00:41:31.544Z,13.85
2022-10-16T00:46:39.097Z,13.82
2022-10-16T00:51:44.454Z,13.85
2022-10-16T00:56:48.402Z,13.95
2022-10-16T01:01:52.996Z,13.94
2022-10-16T01:07:02.948Z,13.96
2022-10-16T01:12:10.474Z,13.93
2022-10-16T01:17:20.789Z,13.87
2022-10-16T01:22:28.150Z,13.77
2022-10-16T01:27:37.449Z,13.88
2022-10-16T01:32:43.746Z,13.62
2022-10-16T01:37:51.339Z,13.46
2022-10-16T01:43:01.920Z,13.35
2022-10-16T01:48:08.859Z,13.37
2022-10-16T01:53:16.055Z,13.28
2022-10-16T01:58:20.368Z,13.38
2022-10-16T02:03:23.561Z,13.27
2022-10-16T02:08:29.183Z,13.31
2022-10-16T02:13:39.595Z,13.31
2022-10-16T02:18:44.479Z,13.30
2022-10-16T02:23:53.471Z,13.29
2022-10-16T02:29:02.606Z,13.15
2022-10-16T02:34:08.516Z,13.11
2022-10-16T02:39:12.687Z,13.05
2022-10-16T02:44:17.076Z,13.04
2022-10-16T02:49:19.881Z,12.97
2022-10-16T02:54:22.764Z,12.93
2022-10-16T02:59:26.887Z,12.78
2022-10-16T03:04:29.650Z,12.72
2022-10-16T03:09:32.542Z,12.71
2022-10-16T03:14:36.799Z,12.72
2022-10-16T03:19:39.578Z,12.69
2022-10-16T03:24:42.353Z,12.74
2022-10-16T03:29:46.498Z,12.76
2022-10-16T03:34:49.327Z,12.69
2022-10-16T03:39:52.510Z,12.76
2022-10-16T03:44:56.696Z,12.80
2022-10-16T03:49:59.616Z,12.84
2022-10-16T03:55:02.597Z,12.84
2022-10-16T04:00:07.927Z,12.83
2022-10-16T04:05:14.769Z,12.79
2022-10-16T04:10:17.859Z,12.71
2022-10-16T04:15:22.033Z,12.68
2022-10-16T04:20:24.909Z,12.69
2022-10-16T04:25:27.810Z,12.72
2022-10-16T04:30:31.955Z,12.79
2022-10-16T04:35:34.738Z,12.72
2022-10-16T04:40:37.928Z,12.81
2022-10-16T04:45:42.280Z,12.71
2022-10-16T04:50:45.066Z,12.71
2022-10-16T04:55:48.228Z,12.68
2022-10-16T05:00:52.507Z,12.67
2022-10-16T05:05:55.786Z,12.77
2022-10-16T05:10:58.616Z,12.71
2022-10-16T05:16:02.809Z,12.67
2022-10-16T05:21:06.797Z,12.67
2022-10-16T05:26:10.771Z,12.71
2022-10-16T05:31:15.006Z,12.59
2022-10-16T05:36:19.206Z,12.69
2022-10-16T05:41:22.918Z,12.78
2022-10-16T05:46:27.088Z,12.91
2022-10-16T05:51:30.154Z,12.94
2022-10-16T05:56:33.266Z,12.91
2022-10-16T06:01:37.430Z,13.23
2022-10-16T06:06:40.302Z,13.38
2022-10-16T06:11:43.261Z,13.39
2022-10-16T06:16:47.376Z,13.48
2022-10-16T06:21:50.200Z,13.37
2022-10-16T06:26:52.955Z,13.29
2022-10-16T06:31:57.062Z,13.26
2022-10-16T06:36:59.797Z,13.58
2022-10-16T06:42:02.514Z,13.68
2022-10-16T06:47:13.557Z,13.94
2022-10-16T06:52:17.076Z,14.01
2022-10-16T06:57:20.493Z,15.58
2022-10-16T07:02:25.211Z,17.65
2022-10-16T07:07:28.420Z,19.01
2022-10-16T07:12:31.212Z,18.45
2022-10-16T07:17:35.306Z,16.17
2022-10-16T07:22:38.043Z,15.46
2022-10-16T07:27:41.020Z,15.03
2022-10-16T07:32:45.232Z,14.63
2022-10-16T07:37:48.553Z,14.65
2022-10-16T07:42:51.379Z,14.93
2022-10-16T07:47:55.516Z,15.07
2022-10-16T07:52:58.309Z,15.44
2022-10-16T07:58:01.528Z,14.87
2022-10-16T08:03:05.912Z,15.02
2022-10-16T08:08:08.804Z,14.90
2022-10-16T08:13:12.166Z,14.64
2022-10-16T08:18:17.169Z,14.69
2022-10-16T08:23:20.293Z,14.59
2022-10-16T08:28:24.136Z,14.81
2022-10-16T08:33:28.260Z,15.14
2022-10-16T08:38:31.218Z,15.65
2022-10-16T08:43:46.734Z,15.83
2022-10-16T08:48:53.748Z,15.76
2022-10-16T08:53:58.911Z,16.00
2022-10-16T08:59:03.310Z,15.90
2022-10-16T09:04:27.970Z,16.24
2022-10-16T09:09:56.496Z,16.52
2022-10-16T09:15:08.908Z,16.42
2022-10-16T09:20:31.252Z,16.47
2022-10-16T09:25:35.774Z,16.73
2022-10-16T09:30:40.348Z,16.87
2022-10-16T09:35:46.571Z,16.84
2022-10-16T09:40:58.841Z,17.16
2022-10-16T09:46:08.350Z,16.69
2022-10-16T09:51:21.837Z,16.79
2022-10-16T09:56:26.424Z,16.95
2022-10-16T10:01:33.717Z,17.01
2022-10-16T10:06:42.546Z,16.89
2022-10-16T10:11:50.122Z,16.98
2022-10-16T10:16:54.780Z,17.08
2022-10-16T10:21:58.915Z,17.00
2022-10-16T10:27:10.334Z,17.05
2022-10-16T10:32:28.618Z,16.86
2022-10-16T10:37:48.602Z,17.12
2022-10-16T10:42:55.660Z,17.63
2022-10-16T10:48:14.477Z,17.82
2022-10-16T10:53:34.687Z,17.49
2022-10-16T10:59:03.122Z,17.46
2022-10-16T11:04:31.839Z,17.37
2022-10-16T11:09:41.392Z,17.34
2022-10-16T11:14:51.648Z,17.32
2022-10-16T11:19:58.785Z,17.39
2022-10-16T11:25:13.945Z,17.64
2022-10-16T11:30:22.302Z,17.89
2022-10-16T11:35:30.543Z,18.32
2022-10-16T11:40:41.968Z,18.54
2022-10-16T11:45:48.560Z,18.55
2022-10-16T11:50:55.443Z,18.57
2022-10-16T11:55:59.670Z,18.39
2022-10-16T12:01:15.577Z,18.02
2022-10-16T12:06:33.533Z,17.40
2022-10-16T12:11:40.791Z,17.20
2022-10-16T12:16:53.608Z,17.27
2022-10-16T12:21:59.041Z,17.03
2022-10-16T12:27:03.752Z,17.14
2022-10-16T12:32:41.933Z,17.57
2022-10-16T12:37:46.648Z,17.45
2022-10-16T12:42:50.952Z,17.70
2022-10-16T12:47:55.852Z,17.75
2022-10-16T12:52:59.126Z,17.80
2022-10-16T12:58:21.310Z,18.13
2022-10-16T13:04:03.386Z,17.86
2022-10-16T13:09:35.430Z,17.57
2022-10-16T13:15:01.835Z,17.42
2022-10-16T13:20:19.333Z,17.38
2022-10-16T13:25:33.932Z,17.58
2022-10-16T13:30:42.125Z,17.45
2022-10-16T13:35:49.852Z,17.59
2022-10-16T13:40:55.867Z,17.61
2022-10-16T13:46:02.862Z,17.77
2022-10-16T13:51:08.887Z,17.86
2022-10-16T13:56:14.146Z,18.17
2022-10-16T14:01:22.192Z,17.93
2022-10-16T14:06:25.007Z,17.78
2022-10-16T14:11:28.339Z,17.53
2022-10-16T14:16:34.577Z,17.58
2022-10-16T14:21:38.256Z,17.67
2022-10-16T14:26:49.700Z,17.73
2022-10-16T14:31:59.439Z,17.70
2022-10-16T14:42:18.156Z,17.62
2022-10-16T14:47:26.770Z,17.46
2022-10-16T14:52:29.784Z,17.55
2022-10-16T14:57:38.076Z,17.29
2022-10-16T15:02:42.140Z,17.17
2022-10-16T15:07:45.110Z,16.95
2022-10-16T15:12:48.612Z,16.71
2022-10-16T15:17:54.624Z,16.56
2022-10-16T15:22:58.021Z,16.52
2022-10-16T15:28:11.896Z,16.59
2022-10-16T15:33:21.757Z,16.64
2022-10-16T15:38:25.200Z,16.52
2022-10-16T15:43:29.110Z,16.31
2022-10-16T15:48:34.825Z,16.03
2022-10-16T15:53:47.329Z,15.88
2022-10-16T15:58:50.556Z,15.63
2022-10-16T16:03:56.969Z,15.46
2022-10-16T16:14:06.131Z,15.33
2022-10-16T16:19:11.710Z,15.20
2022-10-16T16:24:14.999Z,14.91
2022-10-16T16:29:18.446Z,14.83
2022-10-16T16:34:22.707Z,14.56
2022-10-16T16:39:26.289Z,14.40
2022-10-16T16:44:29.192Z,14.28
2022-10-16T16:49:33.614Z,14.20
2022-10-16T16:54:36.484Z,14.12
2022-10-16T16:59:40.687Z,13.98
2022-10-16T17:04:44.918Z,13.92
2022-10-16T17:09:47.847Z,13.92
2022-10-16T17:14:52.643Z,13.85
2022-10-16T17:19:56.796Z,13.94
2022-10-16T17:24:59.593Z,13.83
2022-10-16T17:30:02.411Z,13.70
2022-10-16T17:35:08.708Z,13.61
2022-10-16T17:45:19.332Z,13.43
2022-10-16T17:50:25.829Z,13.31
2022-10-16T17:55:29.008Z,13.26
2022-10-16T18:00:32.117Z,13.21
2022-10-16T18:05:39.336Z,13.13
2022-10-16T18:10:47.333Z,13.06
2022-10-16T18:16:01.082Z,13.02
2022-10-16T18:21:09.194Z,12.96
2022-10-16T18:26:13.938Z,12.88
2022-10-16T18:31:21.651Z,12.85
2022-10-16T18:36:29.944Z,12.80
2022-10-16T18:41:41.776Z,12.75
2022-10-16T18:46:45.224Z,12.73
2022-10-16T18:51:52.957Z,12.76
2022-10-16T18:56:56.406Z,12.76
2022-10-16T19:01:59.754Z,12.77
2022-10-16T19:07:05.051Z,12.72
2022-10-16T19:12:14.891Z,12.61
2022-10-16T19:17:18.548Z,12.47
2022-10-16T19:22:51.931Z,12.39
2022-10-16T19:27:56.804Z,12.35
2022-10-16T19:33:06.832Z,12.29
2022-10-16T19:38:19.838Z,12.26
2022-10-16T19:43:24.509Z,12.25
2022-10-16T19:48:27.448Z,12.20
2022-10-16T19:53:46.604Z,12.30
2022-10-16T20:13:07.620Z,12.47
2022-10-16T20:18:19.500Z,12.52
2022-10-16T20:38:24.421Z,12.59
2022-10-16T20:48:52.491Z,12.59
2022-10-16T20:53:57.261Z,12.58
2022-10-16T20:59:01.650Z,12.65
2022-10-16T21:04:08.447Z,12.84
2022-10-16T21:09:11.315Z,12.92
2022-10-16T21:14:15.680Z,12.79
2022-10-16T21:19:19.345Z,12.79
2022-10-16T21:24:27.831Z,12.91
2022-10-16T21:29:32.247Z,12.80
2022-10-16T21:34:36.215Z,12.74
2022-10-16T21:39:39.396Z,12.76
2022-10-16T21:44:43.617Z,12.76
2022-10-16T21:49:46.539Z,13.01
2022-10-16T21:54:58.239Z,12.80
2022-10-16T22:00:05.439Z,12.70
2022-10-16T22:05:10.360Z,12.63
2022-10-16T22:10:13.292Z,12.57
2022-10-16T22:15:17.707Z,12.80
2022-10-16T22:20:20.602Z,12.82
2022-10-16T22:25:26.669Z,12.78
2022-10-16T22:30:30.917Z,12.77
2022-10-16T22:35:40.059Z,13.04
2022-10-16T22:40:42.860Z,13.08
2022-10-16T22:45:47.080Z,13.02
2022-10-16T22:50:50.061Z,13.00
2022-10-16T22:55:53.200Z,13.06
2022-10-16T23:06:00.252Z,13.10
2022-10-16T23:11:07.255Z,13.19
2022-10-16T23:16:13.172Z,13.23
2022-10-16T23:21:17.879Z,13.16
2022-10-16T23:26:23.448Z,13.19
2022-10-16T23:31:28.373Z,13.14
2022-10-16T23:36:31.585Z,13.17
2022-10-16T23:41:34.481Z,13.15
2022-10-16T23:46:39.549Z,13.13
2022-10-16T23:51:42.376Z,13.10
2022-10-16T23:56:45.171Z,13.08
